Time;durP1;ratioP1;P1;durP2;ratioP2;P2;SDS_P1;SDS_P2;PMS_P1;PMS_P2;Temp;Humidity;BMP_temperature;BMP_pressure;BME280_temperature;BME280_humidity;BME280_pressure;Samples;Min_cycle;Max_cycle;Signal;HPM_P1;HPM_P2
2021/12/13 00:01:02;;;;;;;47.38;24.13;;;9.70;99.90;;;;;;5070409;28;20157;-77
2021/12/13 00:03:57;;;;;;;48.72;25.17;;;9.80;99.90;;;;;;5071197;28;20115;-77
2021/12/13 00:06:30;;;;;;;42.08;23.45;;;9.70;99.90;;;;;;5069681;28;20107;-77
2021/12/13 00:08:59;;;;;;;44.40;25.33;;;9.70;99.90;;;;;;5068769;28;20031;-77
2021/12/13 00:11:30;;;;;;;44.45;24.58;;;9.70;99.90;;;;;;5069685;28;20040;-76
2021/12/13 00:14:19;;;;;;;43.45;23.85;;;9.70;99.90;;;;;;5069504;28;20090;-77
2021/12/13 00:16:56;;;;;;;44.15;23.85;;;9.70;99.90;;;;;;5067412;28;20106;-76
2021/12/13 00:19:30;;;;;;;47.80;23.65;;;9.60;99.90;;;;;;5071702;28;20051;-77
2021/12/13 00:21:59;;;;;;;41.83;22.58;;;9.60;99.90;;;;;;5070000;28;20087;-76
2021/12/13 00:24:26;;;;;;;;;;;9.50;99.90;;;;;;5070985;28;20115;-76
2021/12/13 00:27:05;;;;;;;40.10;20.75;;;9.50;99.90;;;;;;5071032;28;19995;-77
2021/12/13 00:29:48;;;;;;;39.38;21.95;;;9.40;99.90;;;;;;5069917;28;20385;-76
2021/12/13 00:32:28;;;;;;;37.53;22.02;;;9.40;99.90;;;;;;5069618;28;20046;-77
2021/12/13 00:35:00;;;;;;;41.05;21.45;;;9.40;99.90;;;;;;5067662;28;20426;-77
2021/12/13 00:37:45;;;;;;;40.60;21.88;;;9.40;99.90;;;;;;5069201;28;20386;-77
2021/12/13 00:40:14;;;;;;;39.30;22.15;;;9.30;99.90;;;;;;5071324;28;20781;-77
2021/12/13 00:42:51;;;;;;;41.55;21.27;;;9.30;99.90;;;;;;5069979;28;20115;-77
2021/12/13 00:45:21;;;;;;;46.88;24.00;;;9.30;99.90;;;;;;5070446;28;20032;-76
2021/12/13 00:47:46;;;;;;;38.92;21.35;;;9.30;99.90;;;;;;5069464;28;20024;-77
2021/12/13 00:50:34;;;;;;;38.28;21.40;;;9.40;99.90;;;;;;5062412;28;20540;-77
2021/12/13 00:53:00;;;;;;;38.33;21.60;;;9.40;99.90;;;;;;5067457;28;20021;-77
2021/12/13 00:55:30;;;;;;;41.20;22.42;;;9.40;99.90;;;;;;5064869;28;20102;-77
2021/12/13 00:58:07;;;;;;;41.78;22.48;;;9.30;99.90;;;;;;5067147;28;20029;-77
2021/12/13 01:00:42;;;;;;;33.80;20.20;;;9.40;99.90;;;;;;5070274;28;20025;-76
2021/12/13 01:03:18;;;;;;;34.67;19.63;;;9.40;99.90;;;;;;5077699;28;20032;-77
2021/12/13 01:05:50;;;;;;;37.03;21.10;;;9.40;99.90;;;;;;5082541;28;20039;-77
2021/12/13 01:08:35;;;;;;;38.05;21.50;;;9.40;99.90;;;;;;5078938;28;20036;-77
2021/12/13 01:11:32;;;;;;;34.92;19.52;;;9.40;99.90;;;;;;5077921;28;20070;-77
2021/12/13 01:14:24;;;;;;;38.85;20.92;;;9.40;99.90;;;;;;5080870;28;20063;-77
2021/12/13 01:17:02;;;;;;;37.63;19.48;;;9.40;99.90;;;;;;5075290;28;20031;-77
2021/12/13 01:19:58;;;;;;;32.28;18.85;;;9.30;99.90;;;;;;5079965;28;20035;-76
2021/12/13 01:26:02;;;;;;;38.17;19.38;;;9.30;99.90;;;;;;5080596;28;20040;-76
2021/12/13 01:28:37;;;;;;;35.33;18.98;;;9.40;99.90;;;;;;5083411;28;20031;-76
2021/12/13 01:31:16;;;;;;;35.92;18.98;;;9.30;99.90;;;;;;5076545;28;20020;-77
2021/12/13 01:33:45;;;;;;;29.38;18.70;;;9.40;99.90;;;;;;5080321;28;20115;-77
2021/12/13 01:36:17;;;;;;;37.38;19.95;;;9.30;99.90;;;;;;5082840;28;20090;-76
2021/12/13 01:38:47;;;;;;;32.47;18.35;;;9.30;99.90;;;;;;5077169;28;20051;-77
2021/12/13 01:41:25;;;;;;;32.20;18.98;;;9.30;99.90;;;;;;5081693;28;20020;-77
2021/12/13 01:43:56;;;;;;;37.13;20.20;;;9.30;99.90;;;;;;5082477;28;20516;-77
2021/12/13 01:46:23;;;;;;;33.25;18.70;;;9.30;99.90;;;;;;5084187;28;20028;-77
2021/12/13 01:48:52;;;;;;;33.25;19.35;;;9.30;99.90;;;;;;5079776;28;20036;-76
2021/12/13 01:51:27;;;;;;;33.83;19.77;;;9.30;99.90;;;;;;5075530;28;20393;-77
2021/12/13 01:54:01;;;;;;;32.55;18.52;;;9.30;99.90;;;;;;5081391;28;20040;-77
2021/12/13 01:59:43;;;;;;;32.58;17.55;;;9.30;99.90;;;;;;5077381;28;20028;-76
2021/12/13 02:02:20;;;;;;;30.70;17.85;;;9.30;99.90;;;;;;5073397;28;20037;-77
2021/12/13 02:04:56;;;;;;;31.42;18.45;;;9.30;99.90;;;;;;5068464;28;20028;-77
2021/12/13 02:07:34;;;;;;;27.92;17.20;;;9.30;99.90;;;;;;5068716;28;20493;-76
2021/12/13 02:10:01;;;;;;;32.60;18.45;;;9.30;99.90;;;;;;5066597;28;20089;-77
2021/12/13 02:12:29;;;;;;;31.55;18.48;;;9.30;99.90;;;;;;5070180;28;20040;-77
2021/12/13 02:17:45;;;;;;;29.52;17.77;;;9.30;99.90;;;;;;5069264;28;20039;-77
2021/12/13 02:20:16;;;;;;;33.15;18.60;;;9.30;99.90;;;;;;5069935;28;20019;-77
2021/12/13 02:22:53;;;;;;;30.13;18.02;;;9.30;99.90;;;;;;5069789;28;20043;-77
2021/12/13 02:25:33;;;;;;;27.08;17.60;;;9.30;99.90;;;;;;5069981;28;20090;-77
2021/12/13 02:28:11;;;;;;;29.60;17.90;;;9.30;99.90;;;;;;5069723;28;20032;-76
2021/12/13 02:30:45;;;;;;;31.88;18.02;;;9.20;99.90;;;;;;5069873;28;20017;-77
2021/12/13 02:33:18;;;;;;;26.73;16.92;;;9.30;99.90;;;;;;5067464;28;20038;-77
2021/12/13 02:35:48;;;;;;;26.60;17.27;;;9.30;99.90;;;;;;5069702;28;20112;-77
2021/12/13 02:38:16;;;;;;;26.95;16.85;;;9.30;99.90;;;;;;5069120;28;20111;-76
2021/12/13 02:40:42;;;;;;;27.98;17.08;;;9.30;99.90;;;;;;5068190;28;20417;-77
2021/12/13 02:43:11;;;;;;;28.75;18.42;;;9.30;99.90;;;;;;5078373;28;20033;-76
2021/12/13 02:45:44;;;;;;;26.88;16.85;;;9.30;99.90;;;;;;5069454;28;20020;-77
2021/12/13 02:48:15;;;;;;;26.90;17.35;;;9.20;99.90;;;;;;5073663;28;20397;-76
2021/12/13 02:50:50;;;;;;;30.05;17.73;;;9.30;99.90;;;;;;5068915;28;20028;-77
2021/12/13 02:53:21;;;;;;;30.50;17.83;;;9.30;99.90;;;;;;5072309;28;20046;-77
2021/12/13 02:55:48;;;;;;;25.80;17.08;;;9.30;99.90;;;;;;5066822;28;20493;-76
2021/12/13 02:58:17;;;;;;;27.65;17.08;;;9.30;99.90;;;;;;5070892;28;20560;-76
2021/12/13 03:00:54;;;;;;;27.85;16.67;;;9.30;99.90;;;;;;5071801;28;20270;-76
2021/12/13 03:03:27;;;;;;;27.00;15.85;;;9.20;99.90;;;;;;5067745;28;20029;-77
2021/12/13 03:05:56;;;;;;;29.52;17.50;;;9.30;99.90;;;;;;5068869;28;20747;-77
2021/12/13 03:08:40;;;;;;;26.02;15.82;;;9.20;99.90;;;;;;5069364;28;20040;-76
2021/12/13 03:11:21;;;;;;;31.77;17.13;;;9.20;99.90;;;;;;5070173;28;20385;-77
2021/12/13 03:13:50;;;;;;;29.33;17.38;;;9.20;99.90;;;;;;5070157;28;20066;-77
2021/12/13 03:16:20;;;;;;;29.23;17.95;;;9.20;99.90;;;;;;5064236;28;20043;-77
2021/12/13 03:18:51;;;;;;;;;;;9.20;99.90;;;;;;5072749;28;20526;-77
2021/12/13 03:21:38;;;;;;;24.60;16.42;;;9.20;99.90;;;;;;5072401;28;19908;-76
2021/12/13 03:24:19;;;;;;;27.10;15.93;;;9.20;99.90;;;;;;5061468;28;20020;-77
2021/12/13 03:27:08;;;;;;;25.58;16.30;;;9.20;99.90;;;;;;5069330;28;20055;-77
2021/12/13 03:29:51;;;;;;;27.80;16.80;;;9.20;99.90;;;;;;5071593;28;20551;-77
2021/12/13 03:32:17;;;;;;;29.45;17.75;;;9.20;99.90;;;;;;5068527;28;20052;-77
2021/12/13 03:34:58;;;;;;;27.73;16.80;;;9.20;99.90;;;;;;5069374;28;20032;-77
2021/12/13 03:37:24;;;;;;;33.85;17.63;;;9.20;99.90;;;;;;5072298;28;20032;-77
2021/12/13 03:39:57;;;;;;;26.92;16.25;;;9.20;99.90;;;;;;5072467;28;20066;-77
2021/12/13 03:42:28;;;;;;;30.00;16.52;;;9.20;99.90;;;;;;5070724;28;20024;-77
2021/12/13 03:44:57;;;;;;;26.90;17.02;;;9.20;99.90;;;;;;5072207;28;20024;-77
2021/12/13 03:47:25;;;;;;;;;;;9.20;99.90;;;;;;5072754;28;20025;-77
2021/12/13 03:49:55;;;;;;;24.20;15.20;;;9.20;99.90;;;;;;5072775;28;19956;-77
2021/12/13 03:52:24;;;;;;;29.58;17.05;;;9.20;99.90;;;;;;5071857;28;20024;-77
2021/12/13 03:54:53;;;;;;;27.25;16.75;;;9.20;99.90;;;;;;5067834;28;20036;-77
2021/12/13 03:57:20;;;;;;;29.58;16.98;;;9.20;99.90;;;;;;5071955;28;20158;-77
2021/12/13 03:59:48;;;;;;;31.77;17.13;;;9.20;99.90;;;;;;5066045;28;20032;-77
2021/12/13 04:02:18;;;;;;;28.52;16.98;;;9.20;99.90;;;;;;5090571;28;20402;-77
2021/12/13 04:04:53;;;;;;;25.50;15.15;;;9.20;99.90;;;;;;5104907;28;20124;-77
2021/12/13 04:07:24;;;;;;;30.73;16.92;;;9.20;99.90;;;;;;5105466;28;20028;-77
2021/12/13 04:09:55;;;;;;;27.00;16.38;;;9.30;99.90;;;;;;5082195;28;20035;-77
2021/12/13 04:12:27;;;;;;;25.40;15.43;;;9.30;99.90;;;;;;5104661;28;20843;-77
2021/12/13 04:14:59;;;;;;;28.27;16.50;;;9.20;99.90;;;;;;5064547;28;20059;-77
2021/12/13 04:17:44;;;;;;;27.95;15.68;;;9.20;99.90;;;;;;5084826;28;20073;-77
2021/12/13 04:20:15;;;;;;;25.85;15.95;;;9.20;99.90;;;;;;5082419;28;20401;-77
2021/12/13 04:22:50;;;;;;;25.98;14.70;;;9.20;99.90;;;;;;5089791;28;20035;-77
2021/12/13 04:25:22;;;;;;;25.83;15.90;;;9.20;99.90;;;;;;5101985;28;20037;-77
2021/12/13 04:27:57;;;;;;;27.67;16.50;;;9.20;99.90;;;;;;5101579;28;20019;-77
2021/12/13 04:30:31;;;;;;;28.95;16.08;;;9.20;99.90;;;;;;5097453;28;20055;-77
2021/12/13 04:33:03;;;;;;;29.25;15.98;;;9.20;99.90;;;;;;5100478;28;20039;-76
2021/12/13 04:35:31;;;;;;;27.23;15.68;;;9.20;99.90;;;;;;5083477;28;20026;-77
2021/12/13 04:38:00;;;;;;;22.38;15.02;;;9.20;99.90;;;;;;5078890;28;20119;-77
2021/12/13 04:40:30;;;;;;;23.00;14.85;;;9.20;99.90;;;;;;5087779;28;20016;-77
2021/12/13 04:43:06;;;;;;;24.75;14.52;;;9.20;99.90;;;;;;5097317;28;20511;-77
2021/12/13 04:45:33;;;;;;;24.70;14.38;;;9.20;99.90;;;;;;5100144;28;20032;-77
2021/12/13 04:48:07;;;;;;;23.92;14.10;;;9.20;99.90;;;;;;5103169;28;20479;-77
2021/12/13 04:50:56;;;;;;;25.15;14.88;;;9.20;99.90;;;;;;5101228;28;20110;-77
2021/12/13 04:53:27;;;;;;;25.58;15.05;;;9.20;99.90;;;;;;5081220;28;20020;-77
2021/12/13 04:55:55;;;;;;;21.60;14.55;;;9.20;99.90;;;;;;5102882;28;20035;-77
2021/12/13 04:58:22;;;;;;;26.50;15.53;;;9.20;99.90;;;;;;5082816;28;20052;-77
2021/12/13 05:00:51;;;;;;;22.48;13.68;;;9.20;99.90;;;;;;5086678;28;20080;-77
2021/12/13 05:03:22;;;;;;;22.27;13.88;;;9.20;99.90;;;;;;5102238;28;20068;-76
2021/12/13 05:05:48;;;;;;;23.00;13.13;;;9.20;99.90;;;;;;5085834;28;20043;-77
2021/12/13 05:08:16;;;;;;;22.67;13.90;;;9.20;99.90;;;;;;5087677;28;20027;-77
2021/12/13 05:10:46;;;;;;;19.52;13.75;;;9.20;99.90;;;;;;5094571;28;20080;-77
2021/12/13 05:13:16;;;;;;;21.02;13.82;;;9.20;99.90;;;;;;5103105;28;20449;-77
2021/12/13 05:15:50;;;;;;;19.58;13.05;;;9.20;99.90;;;;;;5102950;28;20047;-77
2021/12/13 05:18:24;;;;;;;22.38;13.45;;;9.20;99.90;;;;;;5100697;28;20031;-77
2021/12/13 05:21:17;;;;;;;21.27;13.65;;;9.20;99.90;;;;;;5078887;28;20022;-77
2021/12/13 05:23:54;;;;;;;22.33;12.68;;;9.20;99.90;;;;;;5095680;28;20023;-76
2021/12/13 05:26:50;;;;;;;19.27;12.88;;;9.20;99.90;;;;;;5100721;28;20042;-77
2021/12/13 05:29:40;;;;;;;19.25;13.30;;;9.20;99.90;;;;;;5073071;28;20040;-77
2021/12/13 05:32:22;;;;;;;18.73;12.25;;;9.20;99.90;;;;;;5098526;28;20024;-77
2021/12/13 05:34:52;;;;;;;17.10;11.73;;;9.20;99.90;;;;;;5101545;28;20035;-77
2021/12/13 05:37:20;;;;;;;21.15;12.43;;;9.10;99.90;;;;;;5096772;28;20027;-77
2021/12/13 05:40:01;;;;;;;17.60;12.02;;;9.10;99.90;;;;;;5104070;28;20796;-77
2021/12/13 05:42:43;;;;;;;21.20;12.52;;;9.20;99.90;;;;;;5101596;28;20024;-77
2021/12/13 05:45:15;;;;;;;18.67;11.95;;;9.10;99.90;;;;;;5098053;28;20661;-77
2021/12/13 05:47:58;;;;;;;19.92;12.52;;;9.10;99.90;;;;;;5097896;28;20138;-77
2021/12/13 05:50:35;;;;;;;19.17;12.27;;;9.20;99.90;;;;;;5100920;28;20032;-77
2021/12/13 05:53:20;;;;;;;17.42;12.32;;;9.20;99.90;;;;;;5083313;28;20028;-77
2021/12/13 05:55:50;;;;;;;20.23;12.05;;;9.10;99.90;;;;;;5094677;28;20031;-77
2021/12/13 05:58:37;;;;;;;19.55;12.70;;;9.10;99.90;;;;;;5106609;28;20032;-77
2021/12/13 06:01:12;;;;;;;17.17;11.43;;;9.10;99.90;;;;;;5106349;28;20081;-77
2021/12/13 06:03:42;;;;;;;16.98;11.02;;;9.10;99.90;;;;;;5088216;28;20023;-77
2021/12/13 06:06:16;;;;;;;19.10;11.52;;;9.10;99.90;;;;;;5099740;28;20057;-76
2021/12/13 06:08:49;;;;;;;24.60;12.70;;;9.20;99.90;;;;;;5100802;28;20024;-77
2021/12/13 06:11:22;;;;;;;25.20;13.75;;;9.10;99.90;;;;;;5099772;28;20080;-76
2021/12/13 06:13:53;;;;;;;20.52;11.85;;;9.10;99.90;;;;;;5086722;28;20024;-76
2021/12/13 06:16:47;;;;;;;19.75;11.93;;;9.10;99.90;;;;;;5085087;28;20028;-77
2021/12/13 06:19:37;;;;;;;19.83;10.95;;;9.10;99.90;;;;;;5095084;28;20028;-77
2021/12/13 06:22:12;;;;;;;18.50;11.95;;;9.10;99.90;;;;;;5106262;28;20032;-77
2021/12/13 06:24:45;;;;;;;15.85;11.00;;;9.10;99.90;;;;;;5083517;28;20713;-78
2021/12/13 06:27:17;;;;;;;18.58;11.30;;;9.10;99.90;;;;;;5087213;28;20028;-78
2021/12/13 06:30:15;;;;;;;22.50;12.55;;;9.10;99.90;;;;;;5093049;28;20745;-78
2021/12/13 06:33:07;;;;;;;16.73;11.52;;;9.10;99.90;;;;;;5108561;28;20165;-78
2021/12/13 06:35:38;;;;;;;15.43;10.98;;;9.10;99.90;;;;;;5104243;28;20058;-78
2021/12/13 06:38:19;;;;;;;17.25;10.80;;;9.10;99.90;;;;;;5114548;28;20024;-78
2021/12/13 06:40:57;;;;;;;14.30;10.38;;;9.10;99.90;;;;;;5086285;28;20028;-77
2021/12/13 06:43:36;;;;;;;14.13;9.90;;;9.10;99.90;;;;;;5107804;28;20434;-78
2021/12/13 06:46:23;;;;;;;15.93;10.07;;;9.10;99.90;;;;;;5110326;28;20024;-78
2021/12/13 06:49:03;;;;;;;14.27;10.02;;;9.10;99.90;;;;;;5083206;28;20122;-78
2021/12/13 06:51:51;;;;;;;15.70;10.70;;;9.10;99.90;;;;;;5078043;28;20030;-78
2021/12/13 06:54:26;;;;;;;16.95;10.48;;;9.10;99.90;;;;;;5111220;28;20023;-77
2021/12/13 06:57:00;;;;;;;18.42;11.57;;;9.00;99.90;;;;;;5117076;28;20035;-78
2021/12/13 06:59:27;;;;;;;12.55;9.40;;;9.10;99.90;;;;;;5096307;28;20485;-78
2021/12/13 07:02:21;;;;;;;13.98;9.07;;;9.10;99.90;;;;;;5077773;28;20067;-78
2021/12/13 07:04:49;;;;;;;11.85;8.52;;;9.10;99.90;;;;;;5092301;28;20032;-78
2021/12/13 07:07:17;;;;;;;14.25;9.30;;;9.10;99.90;;;;;;5083024;28;20065;-78
2021/12/13 07:09:59;;;;;;;11.98;8.38;;;9.10;99.90;;;;;;5095758;28;20118;-78
2021/12/13 07:12:28;;;;;;;11.93;8.32;;;9.10;99.90;;;;;;5094901;28;20081;-78
2021/12/13 07:14:53;;;;;;;;;;;9.10;99.90;;;;;;5100050;28;20059;-78
2021/12/13 07:17:31;;;;;;;11.60;8.60;;;9.10;99.90;;;;;;5095684;28;19908;-78
2021/12/13 07:19:58;;;;;;;12.30;8.82;;;9.10;99.90;;;;;;5085555;28;20023;-78
2021/12/13 07:22:30;;;;;;;13.25;8.18;;;9.10;99.90;;;;;;5080975;28;20111;-78
2021/12/13 07:25:12;;;;;;;13.40;8.40;;;9.10;99.90;;;;;;5097944;28;20065;-78
2021/12/13 07:27:47;;;;;;;12.73;8.13;;;9.10;99.90;;;;;;5115893;28;20024;-79
2021/12/13 07:30:24;;;;;;;11.02;8.13;;;9.10;99.90;;;;;;5115604;28;20034;-78
2021/12/13 07:32:57;;;;;;;13.20;8.40;;;9.10;99.90;;;;;;5114047;28;20034;-78
2021/12/13 07:35:41;;;;;;;11.70;8.35;;;9.10;99.90;;;;;;5091293;28;20035;-78
2021/12/13 07:38:22;;;;;;;11.73;7.65;;;9.10;99.90;;;;;;5078638;28;20015;-78
2021/12/13 07:40:49;;;;;;;10.77;7.82;;;9.10;99.90;;;;;;5095444;28;20047;-78
2021/12/13 07:43:38;;;;;;;10.10;7.80;;;9.10;99.90;;;;;;5097600;28;20037;-78
2021/12/13 07:46:09;;;;;;;11.18;8.00;;;9.10;99.90;;;;;;5113871;28;20053;-78
2021/12/13 07:48:39;;;;;;;9.15;7.50;;;9.10;99.90;;;;;;5096138;28;20115;-78
2021/12/13 07:51:04;;;;;;;10.38;7.82;;;9.10;99.90;;;;;;5114912;28;20029;-78
2021/12/13 07:53:57;;;;;;;11.30;8.10;;;9.10;99.90;;;;;;5114525;28;20106;-78
2021/12/13 07:56:39;;;;;;;10.82;7.60;;;9.10;99.90;;;;;;5088590;28;20068;-78
2021/12/13 07:59:22;;;;;;;11.35;7.43;;;9.10;99.90;;;;;;5090295;28;20558;-77
2021/12/13 08:01:57;;;;;;;10.98;7.57;;;9.10;99.90;;;;;;5095568;28;20460;-77
2021/12/13 08:04:43;;;;;;;11.02;8.25;;;9.10;99.90;;;;;;5075491;28;20031;-77
2021/12/13 08:07:20;;;;;;;9.32;7.65;;;9.10;99.90;;;;;;5078556;28;20038;-77
2021/12/13 08:09:54;;;;;;;10.07;7.93;;;9.10;99.90;;;;;;5113097;28;20034;-77
2021/12/13 08:12:40;;;;;;;14.70;8.38;;;9.10;99.90;;;;;;5095503;28;20031;-77
2021/12/13 08:15:20;;;;;;;14.30;8.15;;;9.10;99.90;;;;;;5113469;28;20019;-77
2021/12/13 08:17:50;;;;;;;11.70;7.65;;;9.10;99.90;;;;;;5113746;28;20476;-77
2021/12/13 08:20:30;;;;;;;10.40;7.32;;;9.10;99.90;;;;;;5095809;28;20028;-77
2021/12/13 08:22:58;;;;;;;10.95;7.63;;;9.10;99.90;;;;;;5103800;28;20016;-77
2021/12/13 08:25:29;;;;;;;10.15;7.40;;;9.10;99.90;;;;;;5099912;28;20082;-77
2021/12/13 08:27:59;;;;;;;10.38;7.68;;;9.20;99.90;;;;;;5096072;28;20056;-77
2021/12/13 08:30:31;;;;;;;10.10;7.50;;;9.20;99.90;;;;;;5075730;28;20365;-76
2021/12/13 08:33:19;;;;;;;8.30;6.72;;;9.20;99.90;;;;;;5093823;28;20032;-78
2021/12/13 08:35:49;;;;;;;9.98;7.13;;;9.20;99.90;;;;;;5076046;28;20044;-78
2021/12/13 08:38:27;;;;;;;13.20;7.68;;;9.30;99.90;;;;;;5076416;28;20028;-78
2021/12/13 08:40:54;;;;;;;12.77;8.00;;;9.30;99.90;;;;;;5108974;28;20020;-78
2021/12/13 08:43:36;;;;;;;12.13;7.57;;;9.30;99.90;;;;;;5094145;28;20039;-78
2021/12/13 08:46:03;;;;;;;11.85;7.65;;;9.30;99.90;;;;;;5100046;28;20027;-78
2021/12/13 08:48:29;;;;;;;12.05;7.25;;;9.30;99.90;;;;;;5079048;28;20107;-78
2021/12/13 08:50:58;;;;;;;10.63;7.15;;;9.30;99.90;;;;;;5095903;28;20119;-78
2021/12/13 08:53:34;;;;;;;12.55;7.88;;;9.40;99.90;;;;;;5106124;28;20028;-78
2021/12/13 08:56:06;;;;;;;12.52;7.57;;;9.40;99.90;;;;;;5113162;28;20384;-78
2021/12/13 08:58:32;;;;;;;11.65;7.85;;;9.40;99.90;;;;;;5094403;28;20072;-78
2021/12/13 09:01:07;;;;;;;15.25;8.00;;;9.40;99.90;;;;;;5095050;28;20035;-78
2021/12/13 09:03:41;;;;;;;14.27;7.22;;;9.40;99.90;;;;;;5112814;28;20043;-78
2021/12/13 09:06:16;;;;;;;13.15;8.02;;;9.40;99.90;;;;;;5094491;28;20027;-78
2021/12/13 09:08:44;;;;;;;13.23;7.97;;;9.40;99.90;;;;;;5092537;28;20032;-78
2021/12/13 09:11:25;;;;;;;13.30;7.85;;;9.40;99.90;;;;;;5092813;28;20031;-78
2021/12/13 09:13:57;;;;;;;12.82;7.57;;;9.40;99.90;;;;;;5112663;28;20051;-78
2021/12/13 09:16:29;;;;;;;12.10;7.50;;;9.40;99.90;;;;;;5112338;28;20024;-78
2021/12/13 09:19:18;;;;;;;13.38;7.75;;;9.40;99.90;;;;;;5112690;28;20031;-78
2021/12/13 09:22:09;;;;;;;11.27;7.25;;;9.40;99.90;;;;;;5093350;28;20095;-78
2021/12/13 09:24:46;;;;;;;12.27;6.57;;;9.40;99.90;;;;;;5088795;28;20109;-78
2021/12/13 09:27:23;;;;;;;11.82;7.30;;;9.50;99.90;;;;;;5092980;28;20024;-78
2021/12/13 09:30:02;;;;;;;14.15;6.93;;;9.50;99.90;;;;;;5093227;28;20031;-78
2021/12/13 09:32:58;;;;;;;11.25;7.10;;;9.50;99.90;;;;;;5111675;28;20100;-78
2021/12/13 09:35:36;;;;;;;11.57;6.68;;;9.50;99.90;;;;;;5051401;28;20846;-78
2021/12/13 09:38:28;;;;;;;11.18;6.97;;;9.50;99.90;;;;;;5092603;28;20541;-78
2021/12/13 09:41:07;;;;;;;10.82;6.85;;;9.50;99.90;;;;;;5110997;28;20027;-78
2021/12/13 09:43:45;;;;;;;9.85;6.57;;;9.50;99.90;;;;;;5111243;28;20045;-78
2021/12/13 09:46:14;;;;;;;8.75;6.53;;;9.50;99.90;;;;;;5110353;28;20024;-78
2021/12/13 09:48:50;;;;;;;9.05;6.40;;;9.50;99.90;;;;;;5110549;28;20557;-78
2021/12/13 09:51:28;;;;;;;8.32;5.97;;;9.50;99.90;;;;;;5104873;28;20374;-78
2021/12/13 09:53:58;;;;;;;8.45;6.00;;;9.60;99.90;;;;;;5091582;28;20042;-78
2021/12/13 09:56:27;;;;;;;9.13;5.82;;;9.60;99.90;;;;;;5084456;28;20031;-78
2021/12/13 09:59:00;;;;;;;8.55;5.43;;;9.60;99.90;;;;;;5101678;28;20023;-78
2021/12/13 10:01:32;;;;;;;8.10;5.28;;;9.60;99.90;;;;;;5097882;28;20115;-78
2021/12/13 10:04:04;;;;;;;7.20;4.82;;;9.60;99.90;;;;;;5101271;28;20027;-78
2021/12/13 10:06:50;;;;;;;7.50;4.95;;;9.60;99.90;;;;;;5104886;28;20523;-78
2021/12/13 10:09:29;;;;;;;7.78;5.22;;;9.60;99.90;;;;;;5089265;28;20040;-78
2021/12/13 10:12:13;;;;;;;8.80;5.07;;;9.60;99.90;;;;;;5090776;28;20031;-78
2021/12/13 10:14:47;;;;;;;7.35;4.88;;;9.60;99.90;;;;;;5091673;28;20157;-78
2021/12/13 10:17:16;;;;;;;6.60;4.78;;;9.60;99.90;;;;;;5110395;28;20024;-78
2021/12/13 10:19:47;;;;;;;5.72;4.50;;;9.60;99.90;;;;;;5091469;28;20072;-78
2021/12/13 10:22:17;;;;;;;5.35;4.43;;;9.60;99.90;;;;;;5081294;28;20012;-78
2021/12/13 10:24:53;;;;;;;6.43;4.40;;;9.60;99.90;;;;;;5105917;28;20060;-78
2021/12/13 10:27:20;;;;;;;6.47;4.55;;;9.60;99.90;;;;;;5091909;28;20028;-78
2021/12/13 10:29:53;;;;;;;7.57;4.75;;;9.60;99.90;;;;;;5076187;28;20038;-78
2021/12/13 10:32:33;;;;;;;5.40;4.05;;;9.60;99.90;;;;;;5092588;28;20453;-78
2021/12/13 10:35:12;;;;;;;5.25;3.88;;;9.60;99.90;;;;;;5083076;28;20513;-78
2021/12/13 10:37:42;;;;;;;5.00;3.42;;;9.60;99.90;;;;;;5083029;28;20035;-78
2021/12/13 10:40:24;;;;;;;6.25;3.78;;;9.60;99.90;;;;;;5076694;28;20029;-78
2021/12/13 10:43:02;;;;;;;6.43;4.20;;;9.60;99.90;;;;;;5105364;28;20027;-78
2021/12/13 10:45:39;;;;;;;4.72;3.67;;;9.70;99.90;;;;;;5109582;28;20031;-78
2021/12/13 10:48:10;;;;;;;6.38;3.92;;;9.70;99.90;;;;;;5090514;28;20047;-78
2021/12/13 10:50:46;;;;;;;5.10;3.80;;;9.70;99.90;;;;;;5104313;28;20024;-78
2021/12/13 10:53:17;;;;;;;4.90;3.88;;;9.70;99.90;;;;;;5106906;28;20032;-78
2021/12/13 10:55:47;;;;;;;4.38;3.28;;;9.80;99.90;;;;;;5085945;28;20027;-78
2021/12/13 10:58:25;;;;;;;6.20;3.55;;;9.70;99.90;;;;;;5092355;28;20076;-78
2021/12/13 11:01:07;;;;;;;8.00;3.67;;;9.80;99.90;;;;;;5110531;28;20027;-78
2021/12/13 11:03:34;;;;;;;5.43;3.72;;;9.80;99.90;;;;;;5110444;28;20090;-78
2021/12/13 11:06:01;;;;;;;3.55;3.25;;;9.80;99.90;;;;;;5092108;28;20046;-78
2021/12/13 11:08:28;;;;;;;6.00;3.42;;;9.80;99.90;;;;;;5067673;28;20061;-78
2021/12/13 11:11:04;;;;;;;5.00;3.38;;;9.80;99.90;;;;;;5080626;28;20126;-78
2021/12/13 11:13:34;;;;;;;6.85;3.40;;;9.80;99.90;;;;;;5114551;28;20150;-78
2021/12/13 11:16:05;;;;;;;5.38;3.60;;;9.80;99.90;;;;;;5095356;28;20614;-78
2021/12/13 11:18:32;;;;;;;4.45;3.45;;;9.80;99.90;;;;;;5095251;28;20039;-78
2021/12/13 11:21:10;;;;;;;5.20;3.80;;;9.90;99.90;;;;;;5066024;28;20488;-78
2021/12/13 11:23:36;;;;;;;4.38;3.30;;;9.90;99.90;;;;;;5113104;28;20031;-78
2021/12/13 11:26:07;;;;;;;6.07;3.97;;;9.80;99.90;;;;;;5097605;28;20361;-78
2021/12/13 11:28:35;;;;;;;5.95;3.83;;;9.90;99.90;;;;;;5097868;28;20387;-78
2021/12/13 11:31:10;;;;;;;6.43;3.28;;;9.90;99.90;;;;;;5097420;28;20124;-78
2021/12/13 11:33:58;;;;;;;5.68;3.78;;;9.90;99.90;;;;;;5116815;28;20016;-78
2021/12/13 11:36:42;;;;;;;4.53;3.58;;;9.90;99.90;;;;;;5105206;28;20469;-78
2021/12/13 11:39:45;;;;;;;6.88;3.47;;;9.90;99.90;;;;;;5103178;28;20106;-78
2021/12/13 11:42:42;;;;;;;3.88;3.40;;;9.90;99.90;;;;;;5115438;28;20627;-78
2021/12/13 11:45:39;;;;;;;7.75;3.38;;;9.90;99.90;;;;;;5091135;28;20034;-78
2021/12/13 11:49:15;;;;;;;7.95;3.55;;;10.00;99.90;;;;;;5096497;28;20115;-78
2021/12/13 11:52:08;;;;;;;4.72;2.90;;;9.90;99.90;;;;;;5000224;28;20037;-78
2021/12/13 11:54:39;;;;;;;5.57;3.05;;;9.90;99.90;;;;;;5029869;28;20104;-78
2021/12/13 11:57:23;;;;;;;3.83;2.70;;;9.90;99.90;;;;;;5087952;28;20036;-78
2021/12/13 12:00:26;;;;;;;4.95;3.10;;;10.00;99.90;;;;;;5100609;28;20016;-78
2021/12/13 12:03:29;;;;;;;9.23;2.75;;;10.00;99.90;;;;;;5079868;28;20044;-78
2021/12/13 12:06:13;;;;;;;5.70;2.38;;;10.00;99.90;;;;;;5098705;28;20031;-78
2021/12/13 12:08:54;;;;;;;4.55;2.17;;;10.00;99.90;;;;;;5113655;28;20038;-78
2021/12/13 12:11:28;;;;;;;3.08;2.30;;;10.00;99.90;;;;;;5114002;28;20102;-78
2021/12/13 12:14:05;;;;;;;5.65;2.33;;;10.00;99.90;;;;;;5092257;28;20077;-78
2021/12/13 12:16:39;;;;;;;3.30;2.17;;;10.00;99.90;;;;;;5089267;28;20101;-78
2021/12/13 12:19:09;;;;;;;5.03;2.20;;;10.00;99.90;;;;;;5093072;28;20028;-78
2021/12/13 12:21:57;;;;;;;5.90;2.45;;;10.00;99.90;;;;;;5096836;28;20038;-78
2021/12/13 12:24:29;;;;;;;3.67;2.25;;;10.00;99.90;;;;;;5111914;28;20023;-78
2021/12/13 12:27:02;;;;;;;3.42;2.50;;;10.00;99.90;;;;;;5094048;28;20019;-78
2021/12/13 12:29:33;;;;;;;3.67;2.53;;;10.10;99.90;;;;;;5114540;28;20565;-78
2021/12/13 12:32:04;;;;;;;4.00;2.75;;;10.10;99.90;;;;;;5114660;28;20055;-78
2021/12/13 12:34:33;;;;;;;4.75;2.60;;;10.10;99.90;;;;;;5096161;28;20485;-78
2021/12/13 12:36:58;;;;;;;5.75;3.33;;;10.10;99.90;;;;;;5114225;28;20027;-78
2021/12/13 12:40:03;;;;;;;4.93;3.17;;;10.10;99.90;;;;;;5096185;28;20015;-78
2021/12/13 12:42:45;;;;;;;8.02;3.00;;;10.10;99.90;;;;;;5094045;28;20035;-78
2021/12/13 12:45:23;;;;;;;7.13;3.00;;;10.00;99.90;;;;;;5114387;28;20489;-78
2021/12/13 12:47:54;;;;;;;3.72;2.90;;;10.10;99.90;;;;;;5113963;28;20485;-77
2021/12/13 12:50:22;;;;;;;5.30;3.20;;;10.10;99.90;;;;;;5113711;28;20106;-78
2021/12/13 12:52:56;;;;;;;4.28;3.17;;;10.10;99.90;;;;;;5094737;28;20081;-78
2021/12/13 12:55:29;;;;;;;3.72;2.70;;;10.10;99.90;;;;;;5113472;28;20396;-78
2021/12/13 12:57:57;;;;;;;5.47;2.85;;;10.10;99.90;;;;;;5112917;28;20027;-78
2021/12/13 13:00:27;;;;;;;8.02;2.95;;;10.10;99.90;;;;;;5095396;28;20024;-78
2021/12/13 13:02:53;;;;;;;6.07;2.90;;;10.10;99.90;;;;;;5094867;28;20044;-78
2021/12/13 13:05:22;;;;;;;4.35;2.42;;;10.10;99.90;;;;;;5078393;28;20081;-78
2021/12/13 13:07:51;;;;;;;6.95;2.85;;;10.10;99.90;;;;;;5112955;28;20020;-77
2021/12/13 13:12:48;;;;;;;5.05;2.72;;;10.10;99.90;;;;;;5111676;28;20051;-78
2021/12/13 13:15:20;;;;;;;3.08;2.63;;;10.10;99.90;;;;;;5092864;28;20123;-78
2021/12/13 13:17:54;;;;;;;3.10;2.60;;;10.10;99.90;;;;;;5094293;28;20026;-78
2021/12/13 13:20:29;;;;;;;4.18;2.70;;;10.10;99.90;;;;;;5094540;28;20054;-78
2021/12/13 13:22:57;;;;;;;4.18;2.10;;;10.10;99.90;;;;;;5113320;28;20085;-78
2021/12/13 13:25:46;;;;;;;3.55;2.50;;;10.10;99.90;;;;;;5113500;28;20026;-77
2021/12/13 13:28:23;;;;;;;4.13;3.05;;;10.10;99.90;;;;;;5113135;28;20023;-78
2021/12/13 13:30:55;;;;;;;4.43;3.20;;;10.10;99.90;;;;;;5112925;28;20030;-77
2021/12/13 13:33:33;;;;;;;5.47;3.03;;;10.10;99.90;;;;;;5094849;28;20024;-78
2021/12/13 13:35:59;;;;;;;4.32;2.78;;;10.10;99.90;;;;;;5113267;28;20049;-77
2021/12/13 13:38:25;;;;;;;3.75;2.90;;;10.10;99.90;;;;;;5112879;28;20038;-77
2021/12/13 13:40:51;;;;;;;6.63;2.80;;;10.10;99.90;;;;;;5112992;28;20032;-77